sensor_id;sensor_type;location;lat;lon;timestamp;temperature;humidity
52187;DHT22;38161;53.020;6.598;2023-07-09T00:00:51;20.60;99.90
52187;DHT22;38161;53.020;6.598;2023-07-09T00:03:18;20.60;99.90
52187;DHT22;38161;53.020;6.598;2023-07-09T00:05:49;20.60;99.90
52187;DHT22;38161;53.020;6.598;2023-07-09T00:08:35;20.60;99.90
52187;DHT22;38161;53.020;6.598;2023-07-09T00:11:03;20.60;99.90
52187;DHT22;38161;53.020;6.598;2023-07-09T00:13:29;20.60;99.90
52187;DHT22;38161;53.020;6.598;2023-07-09T00:16:03;20.50;99.90
52187;DHT22;38161;53.020;6.598;2023-07-09T00:18:33;20.50;99.90
52187;DHT22;38161;53.020;6.598;2023-07-09T00:21:00;20.60;99.90
52187;DHT22;38161;53.020;6.598;2023-07-09T00:23:27;20.50;99.90
52187;DHT22;38161;53.020;6.598;2023-07-09T00:25:53;20.50;99.90
52187;DHT22;38161;53.020;6.598;2023-07-09T00:28:19;20.50;99.90
52187;DHT22;38161;53.020;6.598;2023-07-09T00:30:46;20.40;99.90
52187;DHT22;38161;53.020;6.598;2023-07-09T00:33:14;20.40;99.90
52187;DHT22;38161;53.020;6.598;2023-07-09T00:35:46;20.40;99.90
52187;DHT22;38161;53.020;6.598;2023-07-09T00:38:20;20.40;99.90
52187;DHT22;38161;53.020;6.598;2023-07-09T00:43:29;20.40;99.90
52187;DHT22;38161;53.020;6.598;2023-07-09T00:49:07;20.30;99.90
52187;DHT22;38161;53.020;6.598;2023-07-09T00:51:39;20.30;99.90
52187;DHT22;38161;53.020;6.598;2023-07-09T00:56:43;20.20;99.90
52187;DHT22;38161;53.020;6.598;2023-07-09T00:59:14;20.10;99.90
52187;DHT22;38161;53.020;6.598;2023-07-09T01:01:41;20.10;99.90
52187;DHT22;38161;53.020;6.598;2023-07-09T01:04:07;20.00;99.90
52187;DHT22;38161;53.020;6.598;2023-07-09T01:06:44;20.00;99.90
52187;DHT22;38161;53.020;6.598;2023-07-09T01:09:10;19.90;99.90
52187;DHT22;38161;53.020;6.598;2023-07-09T01:11:36;19.90;99.90
52187;DHT22;38161;53.020;6.598;2023-07-09T01:14:06;19.80;99.90
52187;DHT22;38161;53.020;6.598;2023-07-09T01:16:37;19.80;99.90
52187;DHT22;38161;53.020;6.598;2023-07-09T01:19:04;19.80;99.90
52187;DHT22;38161;53.020;6.598;2023-07-09T01:21:30;19.80;99.90
52187;DHT22;38161;53.020;6.598;2023-07-09T01:23:58;19.80;99.90
52187;DHT22;38161;53.020;6.598;2023-07-09T01:26:26;19.70;99.90
52187;DHT22;38161;53.020;6.598;2023-07-09T01:28:54;19.70;99.90
52187;DHT22;38161;53.020;6.598;2023-07-09T01:31:20;19.60;99.90
52187;DHT22;38161;53.020;6.598;2023-07-09T01:33:47;19.60;99.90
52187;DHT22;38161;53.020;6.598;2023-07-09T01:36:19;19.50;99.90
52187;DHT22;38161;53.020;6.598;2023-07-09T01:38:50;19.50;99.90
52187;DHT22;38161;53.020;6.598;2023-07-09T01:41:16;19.50;99.90
52187;DHT22;38161;53.020;6.598;2023-07-09T01:43:43;19.50;99.90
52187;DHT22;38161;53.020;6.598;2023-07-09T01:46:11;19.40;99.90
52187;DHT22;38161;53.020;6.598;2023-07-09T01:48:38;19.40;99.90
52187;DHT22;38161;53.020;6.598;2023-07-09T01:51:12;19.40;99.90
52187;DHT22;38161;53.020;6.598;2023-07-09T01:53:40;19.30;99.90
52187;DHT22;38161;53.020;6.598;2023-07-09T01:56:06;19.30;99.90
52187;DHT22;38161;53.020;6.598;2023-07-09T01:58:36;19.30;99.90
52187;DHT22;38161;53.020;6.598;2023-07-09T02:01:07;19.30;99.90
52187;DHT22;38161;53.020;6.598;2023-07-09T02:03:34;19.20;99.90
52187;DHT22;38161;53.020;6.598;2023-07-09T02:06:00;19.20;99.90
52187;DHT22;38161;53.020;6.598;2023-07-09T02:08:28;19.10;99.90
52187;DHT22;38161;53.020;6.598;2023-07-09T02:10:54;19.10;99.90
52187;DHT22;38161;53.020;6.598;2023-07-09T02:13:20;19.10;99.90
52187;DHT22;38161;53.020;6.598;2023-07-09T02:15:46;19.00;99.90
52187;DHT22;38161;53.020;6.598;2023-07-09T02:18:13;19.00;99.90
52187;DHT22;38161;53.020;6.598;2023-07-09T02:20:39;19.00;99.90
52187;DHT22;38161;53.020;6.598;2023-07-09T02:23:07;19.00;99.90
52187;DHT22;38161;53.020;6.598;2023-07-09T02:25:33;18.90;99.90
52187;DHT22;38161;53.020;6.598;2023-07-09T02:27:59;18.90;99.90
52187;DHT22;38161;53.020;6.598;2023-07-09T02:30:25;18.90;99.90
52187;DHT22;38161;53.020;6.598;2023-07-09T02:32:51;18.80;99.90
52187;DHT22;38161;53.020;6.598;2023-07-09T02:35:20;18.80;99.90
52187;DHT22;38161;53.020;6.598;2023-07-09T02:37:46;18.80;99.90
52187;DHT22;38161;53.020;6.598;2023-07-09T02:40:12;18.80;99.90
52187;DHT22;38161;53.020;6.598;2023-07-09T02:42:38;18.80;99.90
52187;DHT22;38161;53.020;6.598;2023-07-09T02:45:05;18.40;99.90
52187;DHT22;38161;53.020;6.598;2023-07-09T02:47:31;18.70;99.90
52187;DHT22;38161;53.020;6.598;2023-07-09T02:49:57;18.70;99.90
52187;DHT22;38161;53.020;6.598;2023-07-09T02:52:23;18.60;99.90
52187;DHT22;38161;53.020;6.598;2023-07-09T02:54:49;18.60;99.90
52187;DHT22;38161;53.020;6.598;2023-07-09T02:57:16;18.60;99.90
52187;DHT22;38161;53.020;6.598;2023-07-09T02:59:42;18.50;99.90
52187;DHT22;38161;53.020;6.598;2023-07-09T03:02:09;18.50;99.90
52187;DHT22;38161;53.020;6.598;2023-07-09T03:04:35;18.50;99.90
52187;DHT22;38161;53.020;6.598;2023-07-09T03:07:01;18.40;99.90
52187;DHT22;38161;53.020;6.598;2023-07-09T03:09:27;18.40;99.90
52187;DHT22;38161;53.020;6.598;2023-07-09T03:11:53;18.30;99.90
52187;DHT22;38161;53.020;6.598;2023-07-09T03:14:20;18.30;99.90
52187;DHT22;38161;53.020;6.598;2023-07-09T03:16:46;18.30;99.90
52187;DHT22;38161;53.020;6.598;2023-07-09T03:19:12;18.20;99.90
52187;DHT22;38161;53.020;6.598;2023-07-09T03:21:38;18.30;99.90
52187;DHT22;38161;53.020;6.598;2023-07-09T03:24:05;18.20;99.90
52187;DHT22;38161;53.020;6.598;2023-07-09T03:26:31;18.20;99.90
52187;DHT22;38161;53.020;6.598;2023-07-09T03:28:57;18.20;99.90
52187;DHT22;38161;53.020;6.598;2023-07-09T03:31:23;18.20;99.90
52187;DHT22;38161;53.020;6.598;2023-07-09T03:33:51;18.10;99.90
52187;DHT22;38161;53.020;6.598;2023-07-09T03:36:18;18.10;99.90
52187;DHT22;38161;53.020;6.598;2023-07-09T03:38:45;18.10;99.90
52187;DHT22;38161;53.020;6.598;2023-07-09T03:41:11;18.10;99.90
52187;DHT22;38161;53.020;6.598;2023-07-09T03:43:37;18.00;99.90
52187;DHT22;38161;53.020;6.598;2023-07-09T03:46:03;18.00;99.90
52187;DHT22;38161;53.020;6.598;2023-07-09T03:48:29;18.00;99.90
52187;DHT22;38161;53.020;6.598;2023-07-09T03:50:55;17.90;99.90
52187;DHT22;38161;53.020;6.598;2023-07-09T03:53:21;18.00;99.90
52187;DHT22;38161;53.020;6.598;2023-07-09T03:55:52;18.00;99.90
52187;DHT22;38161;53.020;6.598;2023-07-09T03:58:18;18.00;99.90
52187;DHT22;38161;53.020;6.598;2023-07-09T04:00:45;18.00;99.90
52187;DHT22;38161;53.020;6.598;2023-07-09T04:03:11;18.00;99.90
52187;DHT22;38161;53.020;6.598;2023-07-09T04:05:37;18.00;99.90
52187;DHT22;38161;53.020;6.598;2023-07-09T04:08:04;18.00;99.90
52187;DHT22;38161;53.020;6.598;2023-07-09T04:10:30;18.00;99.90
52187;DHT22;38161;53.020;6.598;2023-07-09T04:12:56;18.00;99.90
52187;DHT22;38161;53.020;6.598;2023-07-09T04:15:23;18.00;99.90
52187;DHT22;38161;53.020;6.598;2023-07-09T04:17:48;18.00;99.90
52187;DHT22;38161;53.020;6.598;2023-07-09T04:20:14;18.00;99.90
52187;DHT22;38161;53.020;6.598;2023-07-09T04:22:41;18.00;99.90
52187;DHT22;38161;53.020;6.598;2023-07-09T04:25:10;18.10;99.90
52187;DHT22;38161;53.020;6.598;2023-07-09T04:27:37;18.10;99.90
52187;DHT22;38161;53.020;6.598;2023-07-09T04:30:12;18.10;99.90
52187;DHT22;38161;53.020;6.598;2023-07-09T04:32:38;18.10;99.90
52187;DHT22;38161;53.020;6.598;2023-07-09T04:35:04;18.20;99.90
52187;DHT22;38161;53.020;6.598;2023-07-09T04:37:33;18.20;99.90
52187;DHT22;38161;53.020;6.598;2023-07-09T04:39:59;18.30;99.90
52187;DHT22;38161;53.020;6.598;2023-07-09T04:42:25;18.30;99.90
52187;DHT22;38161;53.020;6.598;2023-07-09T04:44:51;18.40;99.90
52187;DHT22;38161;53.020;6.598;2023-07-09T04:47:17;18.40;99.90
52187;DHT22;38161;53.020;6.598;2023-07-09T04:49:43;18.40;99.90
52187;DHT22;38161;53.020;6.598;2023-07-09T04:52:09;18.50;99.90
52187;DHT22;38161;53.020;6.598;2023-07-09T04:54:40;18.50;99.90
52187;DHT22;38161;53.020;6.598;2023-07-09T04:57:11;18.60;99.90
52187;DHT22;38161;53.020;6.598;2023-07-09T04:59:37;18.70;99.90
52187;DHT22;38161;53.020;6.598;2023-07-09T05:02:03;18.80;99.90
52187;DHT22;38161;53.020;6.598;2023-07-09T05:04:30;18.80;99.90
52187;DHT22;38161;53.020;6.598;2023-07-09T05:06:57;18.90;99.90
52187;DHT22;38161;53.020;6.598;2023-07-09T05:09:23;18.90;99.90
52187;DHT22;38161;53.020;6.598;2023-07-09T05:11:49;19.00;99.90
52187;DHT22;38161;53.020;6.598;2023-07-09T05:14:17;19.10;99.90
52187;DHT22;38161;53.020;6.598;2023-07-09T05:16:44;19.20;99.90
52187;DHT22;38161;53.020;6.598;2023-07-09T05:19:11;19.30;99.90
52187;DHT22;38161;53.020;6.598;2023-07-09T05:21:37;19.40;99.90
52187;DHT22;38161;53.020;6.598;2023-07-09T05:24:03;19.40;99.90
52187;DHT22;38161;53.020;6.598;2023-07-09T05:26:29;19.60;99.90
52187;DHT22;38161;53.020;6.598;2023-07-09T05:28:55;19.60;99.90
52187;DHT22;38161;53.020;6.598;2023-07-09T05:31:23;19.70;99.90
52187;DHT22;38161;53.020;6.598;2023-07-09T05:33:49;19.80;99.90
52187;DHT22;38161;53.020;6.598;2023-07-09T05:36:14;19.90;99.90
52187;DHT22;38161;53.020;6.598;2023-07-09T05:38:43;20.00;99.90
52187;DHT22;38161;53.020;6.598;2023-07-09T05:41:09;20.10;99.90
52187;DHT22;38161;53.020;6.598;2023-07-09T05:43:34;20.20;99.90
52187;DHT22;38161;53.020;6.598;2023-07-09T05:46:05;20.20;99.90
52187;DHT22;38161;53.020;6.598;2023-07-09T05:48:31;20.30;99.90
52187;DHT22;38161;53.020;6.598;2023-07-09T05:50:59;20.40;99.90
52187;DHT22;38161;53.020;6.598;2023-07-09T05:53:25;20.40;99.90
52187;DHT22;38161;53.020;6.598;2023-07-09T05:55:55;20.50;99.90
52187;DHT22;38161;53.020;6.598;2023-07-09T05:58:21;20.50;99.90
52187;DHT22;38161;53.020;6.598;2023-07-09T06:00:53;20.60;99.90
52187;DHT22;38161;53.020;6.598;2023-07-09T06:03:21;20.60;99.90
52187;DHT22;38161;53.020;6.598;2023-07-09T06:05:47;20.70;99.90
52187;DHT22;38161;53.020;6.598;2023-07-09T06:08:17;20.70;99.90
52187;DHT22;38161;53.020;6.598;2023-07-09T06:11:00;20.70;99.90
52187;DHT22;38161;53.020;6.598;2023-07-09T06:13:27;20.80;99.90
52187;DHT22;38161;53.020;6.598;2023-07-09T06:15:54;20.80;99.90
52187;DHT22;38161;53.020;6.598;2023-07-09T06:18:21;20.80;99.90
52187;DHT22;38161;53.020;6.598;2023-07-09T06:20:49;20.90;99.90
52187;DHT22;38161;53.020;6.598;2023-07-09T06:23:15;21.00;99.90
52187;DHT22;38161;53.020;6.598;2023-07-09T06:25:42;21.00;99.90
52187;DHT22;38161;53.020;6.598;2023-07-09T06:28:08;21.10;99.90
52187;DHT22;38161;53.020;6.598;2023-07-09T06:30:36;21.20;99.90
52187;DHT22;38161;53.020;6.598;2023-07-09T06:33:02;21.30;99.90
52187;DHT22;38161;53.020;6.598;2023-07-09T06:35:28;21.40;99.90
52187;DHT22;38161;53.020;6.598;2023-07-09T06:37:54;21.50;99.90
52187;DHT22;38161;53.020;6.598;2023-07-09T06:40:20;21.60;99.90
52187;DHT22;38161;53.020;6.598;2023-07-09T06:42:46;21.70;99.90
52187;DHT22;38161;53.020;6.598;2023-07-09T06:45:12;21.80;99.90
52187;DHT22;38161;53.020;6.598;2023-07-09T06:47:37;21.90;99.90
52187;DHT22;38161;53.020;6.598;2023-07-09T06:50:04;22.10;99.90
52187;DHT22;38161;53.020;6.598;2023-07-09T06:52:30;22.20;99.90
52187;DHT22;38161;53.020;6.598;2023-07-09T06:54:55;22.30;99.90
52187;DHT22;38161;53.020;6.598;2023-07-09T06:57:21;22.30;99.90
52187;DHT22;38161;53.020;6.598;2023-07-09T06:59:47;22.40;99.90
52187;DHT22;38161;53.020;6.598;2023-07-09T07:02:13;22.50;99.90
52187;DHT22;38161;53.020;6.598;2023-07-09T07:04:39;22.60;99.90
52187;DHT22;38161;53.020;6.598;2023-07-09T07:07:06;22.70;99.90
52187;DHT22;38161;53.020;6.598;2023-07-09T07:09:32;22.80;99.90
52187;DHT22;38161;53.020;6.598;2023-07-09T07:11:58;22.90;99.90
52187;DHT22;38161;53.020;6.598;2023-07-09T07:14:23;23.00;99.90
52187;DHT22;38161;53.020;6.598;2023-07-09T07:16:50;23.10;99.90
52187;DHT22;38161;53.020;6.598;2023-07-09T07:19:15;23.20;99.90
52187;DHT22;38161;53.020;6.598;2023-07-09T07:21:41;23.40;99.90
52187;DHT22;38161;53.020;6.598;2023-07-09T07:24:07;23.50;99.90
52187;DHT22;38161;53.020;6.598;2023-07-09T07:26:33;23.60;99.90
52187;DHT22;38161;53.020;6.598;2023-07-09T07:28:59;23.70;99.90
52187;DHT22;38161;53.020;6.598;2023-07-09T07:31:25;23.80;99.90
52187;DHT22;38161;53.020;6.598;2023-07-09T07:33:51;23.80;99.90
52187;DHT22;38161;53.020;6.598;2023-07-09T07:36:17;23.90;99.90
52187;DHT22;38161;53.020;6.598;2023-07-09T07:38:43;24.10;99.90
52187;DHT22;38161;53.020;6.598;2023-07-09T07:41:09;24.10;99.90
52187;DHT22;38161;53.020;6.598;2023-07-09T07:43:36;24.30;99.90
52187;DHT22;38161;53.020;6.598;2023-07-09T07:46:02;24.50;99.90
52187;DHT22;38161;53.020;6.598;2023-07-09T07:48:28;24.60;99.90
52187;DHT22;38161;53.020;6.598;2023-07-09T07:51:01;24.70;99.90
52187;DHT22;38161;53.020;6.598;2023-07-09T07:53:29;24.80;99.90
52187;DHT22;38161;53.020;6.598;2023-07-09T07:55:56;25.00;99.90
52187;DHT22;38161;53.020;6.598;2023-07-09T07:58:23;25.10;99.90
52187;DHT22;38161;53.020;6.598;2023-07-09T08:00:49;25.20;99.90
52187;DHT22;38161;53.020;6.598;2023-07-09T08:03:14;25.30;99.90
52187;DHT22;38161;53.020;6.598;2023-07-09T08:05:40;25.40;99.90
52187;DHT22;38161;53.020;6.598;2023-07-09T08:08:06;25.50;99.90
52187;DHT22;38161;53.020;6.598;2023-07-09T08:10:32;25.70;99.90
52187;DHT22;38161;53.020;6.598;2023-07-09T08:12:58;25.80;99.90
52187;DHT22;38161;53.020;6.598;2023-07-09T08:15:35;26.00;99.90
52187;DHT22;38161;53.020;6.598;2023-07-09T08:18:22;26.20;99.90
52187;DHT22;38161;53.020;6.598;2023-07-09T08:21:31;26.20;99.90
52187;DHT22;38161;53.020;6.598;2023-07-09T08:23:58;26.30;99.90
52187;DHT22;38161;53.020;6.598;2023-07-09T08:26:35;26.40;99.90
52187;DHT22;38161;53.020;6.598;2023-07-09T08:29:04;26.50;99.90
52187;DHT22;38161;53.020;6.598;2023-07-09T08:31:39;26.60;99.90
52187;DHT22;38161;53.020;6.598;2023-07-09T08:34:15;26.70;99.90
52187;DHT22;38161;53.020;6.598;2023-07-09T08:36:43;26.80;99.90
52187;DHT22;38161;53.020;6.598;2023-07-09T08:39:10;26.80;99.90
52187;DHT22;38161;53.020;6.598;2023-07-09T08:44:23;27.00;99.90
52187;DHT22;38161;53.020;6.598;2023-07-09T08:47:18;27.10;99.90
52187;DHT22;38161;53.020;6.598;2023-07-09T08:55:41;27.40;99.90
52187;DHT22;38161;53.020;6.598;2023-07-09T08:58:36;27.50;99.90
52187;DHT22;38161;53.020;6.598;2023-07-09T09:01:10;27.70;99.90
52187;DHT22;38161;53.020;6.598;2023-07-09T09:06:47;27.90;99.90
52187;DHT22;38161;53.020;6.598;2023-07-09T09:09:40;28.00;99.90
52187;DHT22;38161;53.020;6.598;2023-07-09T09:15:27;28.20;99.90
52187;DHT22;38161;53.020;6.598;2023-07-09T09:18:27;28.30;99.90
52187;DHT22;38161;53.020;6.598;2023-07-09T09:21:21;28.30;99.90
52187;DHT22;38161;53.020;6.598;2023-07-09T09:23:53;28.40;99.90
52187;DHT22;38161;53.020;6.598;2023-07-09T09:26:49;28.50;99.90
52187;DHT22;38161;53.020;6.598;2023-07-09T09:29:49;28.60;99.90
52187;DHT22;38161;53.020;6.598;2023-07-09T09:32:29;28.80;99.90
52187;DHT22;38161;53.020;6.598;2023-07-09T09:35:15;28.90;99.90
52187;DHT22;38161;53.020;6.598;2023-07-09T09:37:49;29.00;99.90
52187;DHT22;38161;53.020;6.598;2023-07-09T09:40:17;29.20;99.90
52187;DHT22;38161;53.020;6.598;2023-07-09T09:42:44;29.30;99.90
52187;DHT22;38161;53.020;6.598;2023-07-09T09:45:17;29.40;99.90
52187;DHT22;38161;53.020;6.598;2023-07-09T09:47:45;29.50;99.90
52187;DHT22;38161;53.020;6.598;2023-07-09T09:50:20;29.60;99.90
52187;DHT22;38161;53.020;6.598;2023-07-09T09:52:50;29.60;99.90
52187;DHT22;38161;53.020;6.598;2023-07-09T09:55:29;29.80;99.90
52187;DHT22;38161;53.020;6.598;2023-07-09T09:58:18;29.90;99.90
52187;DHT22;38161;53.020;6.598;2023-07-09T10:00:56;30.00;99.90
52187;DHT22;38161;53.020;6.598;2023-07-09T10:03:35;30.10;99.90
52187;DHT22;38161;53.020;6.598;2023-07-09T10:06:06;30.20;99.90
52187;DHT22;38161;53.020;6.598;2023-07-09T10:08:45;30.30;99.90
52187;DHT22;38161;53.020;6.598;2023-07-09T10:11:36;30.40;99.90
52187;DHT22;38161;53.020;6.598;2023-07-09T10:17:20;30.50;99.90
52187;DHT22;38161;53.020;6.598;2023-07-09T10:20:01;30.60;99.90
52187;DHT22;38161;53.020;6.598;2023-07-09T10:22:43;30.60;99.90
52187;DHT22;38161;53.020;6.598;2023-07-09T10:26:11;30.70;99.90
52187;DHT22;38161;53.020;6.598;2023-07-09T10:37:00;30.90;99.90
52187;DHT22;38161;53.020;6.598;2023-07-09T10:39:40;30.90;99.90
52187;DHT22;38161;53.020;6.598;2023-07-09T10:42:58;31.00;99.90
52187;DHT22;38161;53.020;6.598;2023-07-09T10:45:09;31.10;99.90
52187;DHT22;38161;53.020;6.598;2023-07-09T10:47:43;31.20;99.90
52187;DHT22;38161;53.020;6.598;2023-07-09T10:50:19;31.20;99.90
52187;DHT22;38161;53.020;6.598;2023-07-09T10:52:50;31.20;99.90
52187;DHT22;38161;53.020;6.598;2023-07-09T10:55:29;31.20;99.90
52187;DHT22;38161;53.020;6.598;2023-07-09T10:58:04;31.30;99.90
52187;DHT22;38161;53.020;6.598;2023-07-09T11:00:36;31.30;99.90
52187;DHT22;38161;53.020;6.598;2023-07-09T11:03:19;31.40;99.90
52187;DHT22;38161;53.020;6.598;2023-07-09T11:05:46;31.50;99.90
52187;DHT22;38161;53.020;6.598;2023-07-09T11:08:36;31.50;99.90
52187;DHT22;38161;53.020;6.598;2023-07-09T11:11:06;31.40;99.90
52187;DHT22;38161;53.020;6.598;2023-07-09T11:13:40;31.40;99.90
52187;DHT22;38161;53.020;6.598;2023-07-09T11:16:13;31.40;99.90
52187;DHT22;38161;53.020;6.598;2023-07-09T11:18:40;31.40;99.90
52187;DHT22;38161;53.020;6.598;2023-07-09T11:21:17;31.50;99.90
52187;DHT22;38161;53.020;6.598;2023-07-09T11:23:55;31.50;99.90
52187;DHT22;38161;53.020;6.598;2023-07-09T11:26:23;31.60;99.90
52187;DHT22;38161;53.020;6.598;2023-07-09T11:29:05;31.70;99.90
52187;DHT22;38161;53.020;6.598;2023-07-09T11:32:06;31.70;99.90
52187;DHT22;38161;53.020;6.598;2023-07-09T11:34:33;31.70;99.90
52187;DHT22;38161;53.020;6.598;2023-07-09T11:37:00;31.70;99.90
52187;DHT22;38161;53.020;6.598;2023-07-09T11:39:47;31.80;99.90
52187;DHT22;38161;53.020;6.598;2023-07-09T11:42:30;31.80;99.90
52187;DHT22;38161;53.020;6.598;2023-07-09T11:45:21;31.90;99.90
52187;DHT22;38161;53.020;6.598;2023-07-09T11:47:57;32.00;99.90
52187;DHT22;38161;53.020;6.598;2023-07-09T11:50:43;32.00;99.90
52187;DHT22;38161;53.020;6.598;2023-07-09T11:53:44;32.10;99.90
52187;DHT22;38161;53.020;6.598;2023-07-09T11:56:11;32.20;99.00
52187;DHT22;38161;53.020;6.598;2023-07-09T11:58:51;32.20;99.90
52187;DHT22;38161;53.020;6.598;2023-07-09T12:01:34;32.30;99.50
52187;DHT22;38161;53.020;6.598;2023-07-09T12:04:03;32.40;99.50
52187;DHT22;38161;53.020;6.598;2023-07-09T12:06:32;32.40;98.80
52187;DHT22;38161;53.020;6.598;2023-07-09T12:08:59;32.50;98.90
52187;DHT22;38161;53.020;6.598;2023-07-09T12:11:27;32.50;98.90
52187;DHT22;38161;53.020;6.598;2023-07-09T12:13:54;32.60;99.30
52187;DHT22;38161;53.020;6.598;2023-07-09T12:16:41;32.80;99.70
52187;DHT22;38161;53.020;6.598;2023-07-09T12:19:11;32.80;98.80
52187;DHT22;38161;53.020;6.598;2023-07-09T12:21:39;32.90;99.40
52187;DHT22;38161;53.020;6.598;2023-07-09T12:24:25;32.90;98.60
52187;DHT22;38161;53.020;6.598;2023-07-09T12:26:59;32.90;97.80
52187;DHT22;38161;53.020;6.598;2023-07-09T12:29:26;33.00;97.90
52187;DHT22;38161;53.020;6.598;2023-07-09T12:31:53;33.00;97.60
52187;DHT22;38161;53.020;6.598;2023-07-09T12:34:21;33.00;98.00
52187;DHT22;38161;53.020;6.598;2023-07-09T12:36:50;33.10;98.10
52187;DHT22;38161;53.020;6.598;2023-07-09T12:39:23;33.10;97.80
52187;DHT22;38161;53.020;6.598;2023-07-09T12:41:50;33.20;98.00
52187;DHT22;38161;53.020;6.598;2023-07-09T12:44:19;33.30;97.30
52187;DHT22;38161;53.020;6.598;2023-07-09T12:46:51;33.30;96.80
52187;DHT22;38161;53.020;6.598;2023-07-09T12:49:25;33.30;97.00
52187;DHT22;38161;53.020;6.598;2023-07-09T12:51:55;33.20;96.20
52187;DHT22;38161;53.020;6.598;2023-07-09T12:54:24;33.20;96.60
52187;DHT22;38161;53.020;6.598;2023-07-09T12:56:56;33.20;96.90
52187;DHT22;38161;53.020;6.598;2023-07-09T12:59:28;33.10;96.90
52187;DHT22;38161;53.020;6.598;2023-07-09T13:02:37;33.20;97.00
52187;DHT22;38161;53.020;6.598;2023-07-09T13:05:24;33.20;97.00
52187;DHT22;38161;53.020;6.598;2023-07-09T13:07:54;33.20;97.10
52187;DHT22;38161;53.020;6.598;2023-07-09T13:10:25;33.20;96.80
52187;DHT22;38161;53.020;6.598;2023-07-09T13:13:02;33.20;96.40
52187;DHT22;38161;53.020;6.598;2023-07-09T13:15:39;33.10;94.70
52187;DHT22;38161;53.020;6.598;2023-07-09T13:18:08;33.10;95.90
52187;DHT22;38161;53.020;6.598;2023-07-09T13:20:38;33.10;95.70
52187;DHT22;38161;53.020;6.598;2023-07-09T13:23:17;33.00;95.20
52187;DHT22;38161;53.020;6.598;2023-07-09T13:25:44;32.90;94.40
52187;DHT22;38161;53.020;6.598;2023-07-09T13:28:27;32.80;94.90
52187;DHT22;38161;53.020;6.598;2023-07-09T13:31:14;32.70;94.80
52187;DHT22;38161;53.020;6.598;2023-07-09T13:33:44;32.50;95.30
52187;DHT22;38161;53.020;6.598;2023-07-09T13:36:10;32.40;95.10
52187;DHT22;38161;53.020;6.598;2023-07-09T13:38:37;32.30;95.10
52187;DHT22;38161;53.020;6.598;2023-07-09T13:41:24;32.20;94.90
52187;DHT22;38161;53.020;6.598;2023-07-09T13:44:04;32.20;95.40
52187;DHT22;38161;53.020;6.598;2023-07-09T13:46:36;32.10;95.70
52187;DHT22;38161;53.020;6.598;2023-07-09T13:49:02;32.20;95.40
52187;DHT22;38161;53.020;6.598;2023-07-09T13:51:29;32.20;95.90
52187;DHT22;38161;53.020;6.598;2023-07-09T13:53:56;32.40;95.40
52187;DHT22;38161;53.020;6.598;2023-07-09T13:56:24;32.70;95.50
52187;DHT22;38161;53.020;6.598;2023-07-09T13:58:50;32.70;95.50
52187;DHT22;38161;53.020;6.598;2023-07-09T14:01:28;32.80;95.40
52187;DHT22;38161;53.020;6.598;2023-07-09T14:03:57;32.90;94.20
52187;DHT22;38161;53.020;6.598;2023-07-09T14:06:26;32.90;94.90
52187;DHT22;38161;53.020;6.598;2023-07-09T14:08:52;33.00;95.10
52187;DHT22;38161;53.020;6.598;2023-07-09T14:11:18;33.00;95.30
52187;DHT22;38161;53.020;6.598;2023-07-09T14:13:44;33.00;95.00
52187;DHT22;38161;53.020;6.598;2023-07-09T14:16:11;33.00;94.90
52187;DHT22;38161;53.020;6.598;2023-07-09T14:18:37;33.00;95.50
52187;DHT22;38161;53.020;6.598;2023-07-09T14:21:18;33.00;95.50
52187;DHT22;38161;53.020;6.598;2023-07-09T14:23:45;33.00;95.00
52187;DHT22;38161;53.020;6.598;2023-07-09T14:26:11;33.00;95.10
52187;DHT22;38161;53.020;6.598;2023-07-09T14:28:38;32.90;95.20
52187;DHT22;38161;53.020;6.598;2023-07-09T14:31:10;32.80;95.20
52187;DHT22;38161;53.020;6.598;2023-07-09T14:33:41;32.70;94.70
52187;DHT22;38161;53.020;6.598;2023-07-09T14:36:08;32.60;95.20
52187;DHT22;38161;53.020;6.598;2023-07-09T14:38:34;32.50;95.80
52187;DHT22;38161;53.020;6.598;2023-07-09T14:41:04;32.30;95.90
52187;DHT22;38161;53.020;6.598;2023-07-09T14:43:40;32.20;95.60
52187;DHT22;38161;53.020;6.598;2023-07-09T14:46:06;32.00;96.30
52187;DHT22;38161;53.020;6.598;2023-07-09T14:48:32;31.90;96.70
52187;DHT22;38161;53.020;6.598;2023-07-09T14:50:58;31.80;97.30
52187;DHT22;38161;53.020;6.598;2023-07-09T14:53:27;31.60;97.40
52187;DHT22;38161;53.020;6.598;2023-07-09T14:55:58;31.50;97.40
52187;DHT22;38161;53.020;6.598;2023-07-09T14:58:28;31.40;97.70
52187;DHT22;38161;53.020;6.598;2023-07-09T15:00:54;31.30;98.40
52187;DHT22;38161;53.020;6.598;2023-07-09T15:03:23;31.10;98.80
52187;DHT22;38161;53.020;6.598;2023-07-09T15:05:50;31.00;98.80
52187;DHT22;38161;53.020;6.598;2023-07-09T15:08:21;31.00;98.70
52187;DHT22;38161;53.020;6.598;2023-07-09T15:10:48;30.90;98.30
52187;DHT22;38161;53.020;6.598;2023-07-09T15:13:25;30.80;98.30
52187;DHT22;38161;53.020;6.598;2023-07-09T15:15:52;30.80;98.80
52187;DHT22;38161;53.020;6.598;2023-07-09T15:18:18;30.60;99.30
52187;DHT22;38161;53.020;6.598;2023-07-09T15:20:53;30.50;99.30
52187;DHT22;38161;53.020;6.598;2023-07-09T15:23:20;30.50;99.30
52187;DHT22;38161;53.020;6.598;2023-07-09T15:25:50;30.40;98.50
52187;DHT22;38161;53.020;6.598;2023-07-09T15:28:16;30.10;96.40
52187;DHT22;38161;53.020;6.598;2023-07-09T15:30:43;29.80;95.60
52187;DHT22;38161;53.020;6.598;2023-07-09T15:33:16;29.50;95.30
52187;DHT22;38161;53.020;6.598;2023-07-09T15:35:48;29.20;94.60
52187;DHT22;38161;53.020;6.598;2023-07-09T15:38:31;28.90;95.30
52187;DHT22;38161;53.020;6.598;2023-07-09T15:40:59;28.50;95.90
52187;DHT22;38161;53.020;6.598;2023-07-09T15:43:25;28.20;97.50
52187;DHT22;38161;53.020;6.598;2023-07-09T15:45:54;27.80;99.30
52187;DHT22;38161;53.020;6.598;2023-07-09T15:48:25;27.30;99.90
52187;DHT22;38161;53.020;6.598;2023-07-09T15:50:52;26.80;99.90
52187;DHT22;38161;53.020;6.598;2023-07-09T15:53:19;26.50;99.90
52187;DHT22;38161;53.020;6.598;2023-07-09T15:55:46;26.20;99.90
52187;DHT22;38161;53.020;6.598;2023-07-09T15:58:38;25.90;99.90
52187;DHT22;38161;53.020;6.598;2023-07-09T16:01:05;25.60;99.90
52187;DHT22;38161;53.020;6.598;2023-07-09T16:03:33;25.20;99.90
52187;DHT22;38161;53.020;6.598;2023-07-09T16:05:59;24.90;99.90
52187;DHT22;38161;53.020;6.598;2023-07-09T16:08:25;24.60;99.90
52187;DHT22;38161;53.020;6.598;2023-07-09T16:10:51;24.50;99.90
52187;DHT22;38161;53.020;6.598;2023-07-09T16:13:23;24.30;99.90
52187;DHT22;38161;53.020;6.598;2023-07-09T16:15:50;24.10;99.90
52187;DHT22;38161;53.020;6.598;2023-07-09T16:18:17;24.00;99.90
52187;DHT22;38161;53.020;6.598;2023-07-09T16:20:43;24.00;99.90
52187;DHT22;38161;53.020;6.598;2023-07-09T16:23:20;23.90;99.90
52187;DHT22;38161;53.020;6.598;2023-07-09T16:25:48;23.90;99.90